Time;durP1;ratioP1;P1;durP2;ratioP2;P2;SDS_P1;SDS_P2;PMS_P1;PMS_P2;Temp;Humidity;BMP_temperature;BMP_pressure;BME280_temperature;BME280_humidity;BME280_pressure;Samples;Min_cycle;Max_cycle;Signal;HPM_P1;HPM_P2
2023/12/19 00:01:45;;;;;;;22.15;14.10;;;;;3.60;99691.00;;;;5052669;28;20494;-62
2023/12/19 00:04:14;;;;;;;23.08;13.65;;;;;3.70;99697.00;;;;5052915;28;20055;-63
2023/12/19 00:06:41;;;;;;;22.13;13.80;;;;;3.80;99697.00;;;;5053435;28;20107;-61
2023/12/19 00:09:07;;;;;;;21.92;13.93;;;;;3.70;99702.00;;;;5053080;28;20053;-63
2023/12/19 00:11:34;;;;;;;20.95;13.93;;;;;3.70;99702.00;;;;5051565;28;20132;-63
2023/12/19 00:14:01;;;;;;;20.42;13.82;;;;;3.70;99704.00;;;;5051919;28;20041;-62
2023/12/19 00:16:27;;;;;;;21.33;13.98;;;;;3.70;99709.00;;;;5052441;28;20040;-63
2023/12/19 00:18:54;;;;;;;22.90;13.75;;;;;3.70;99702.00;;;;5052524;28;20055;-63
2023/12/19 00:21:21;;;;;;;21.60;14.43;;;;;3.70;99682.00;;;;5052400;28;20040;-63
2023/12/19 00:23:47;;;;;;;21.88;14.27;;;;;3.80;99674.00;;;;5051994;28;20498;-63
2023/12/19 00:26:15;;;;;;;21.23;13.95;;;;;3.80;99680.00;;;;5052524;28;20055;-63
2023/12/19 00:28:43;;;;;;;23.27;14.57;;;;;4.00;99675.00;;;;5052353;28;20068;-63
2023/12/19 00:31:21;;;;;;;23.73;15.02;;;;;3.90;99677.00;;;;5052351;28;20051;-62
2023/12/19 00:33:48;;;;;;;22.48;14.25;;;;;3.90;99682.00;;;;5051671;28;20060;-63
2023/12/19 00:36:22;;;;;;;21.65;14.68;;;;;3.90;99673.00;;;;5052283;28;20041;-64
2023/12/19 00:38:49;;;;;;;23.50;14.50;;;;;3.90;99669.00;;;;5052108;28;20171;-63
2023/12/19 00:41:16;;;;;;;25.38;14.95;;;;;3.90;99675.00;;;;5050885;28;20045;-63
2023/12/19 00:43:44;;;;;;;21.92;14.73;;;;;4.00;99661.00;;;;5051570;28;20049;-64
2023/12/19 00:46:11;;;;;;;23.13;14.75;;;;;4.00;99668.00;;;;5052132;28;20077;-64
2023/12/19 00:48:38;;;;;;;21.85;14.23;;;;;4.00;99671.00;;;;5052084;28;20064;-64
2023/12/19 00:51:10;;;;;;;21.13;14.48;;;;;4.00;99668.00;;;;5051978;28;20080;-64
2023/12/19 00:53:37;;;;;;;23.30;13.98;;;;;4.00;99673.00;;;;5051273;28;20045;-63
2023/12/19 00:56:11;;;;;;;22.20;15.00;;;;;3.90;99677.00;;;;5052097;28;20045;-64
2023/12/19 00:58:38;;;;;;;;;;;;;4.00;99688.00;;;;5052855;28;20045;-64
2023/12/19 01:01:06;;;;;;;22.73;15.00;;;;;3.90;99697.00;;;;5052127;28;19921;-64
2023/12/19 01:03:33;;;;;;;23.38;14.30;;;;;4.00;99697.00;;;;5051362;28;20390;-64
2023/12/19 01:06:02;;;;;;;21.40;14.70;;;;;3.90;99691.00;;;;5050853;28;20448;-63
2023/12/19 01:08:30;;;;;;;21.95;14.25;;;;;3.90;99687.00;;;;5055401;28;20087;-63
2023/12/19 01:10:56;;;;;;;26.10;15.15;;;;;3.90;99689.00;;;;5056168;28;20120;-63
2023/12/19 01:13:23;;;;;;;24.75;14.18;;;;;4.00;99680.00;;;;5055751;28;20148;-63
2023/12/19 01:15:50;;;;;;;21.38;13.98;;;;;4.10;99680.00;;;;5055947;28;20041;-64
2023/12/19 01:18:17;;;;;;;22.17;14.10;;;;;4.10;99671.00;;;;5055863;28;20045;-64
2023/12/19 01:20:45;;;;;;;22.17;13.90;;;;;4.00;99675.00;;;;5055691;28;20064;-64
2023/12/19 01:23:11;;;;;;;22.73;13.05;;;;;3.90;99670.00;;;;5055720;28;20095;-63
2023/12/19 01:25:39;;;;;;;20.13;13.75;;;;;3.90;99666.00;;;;5055201;28;20041;-64
2023/12/19 01:28:06;;;;;;;21.98;13.27;;;;;3.90;99664.00;;;;5055666;28;20148;-64
2023/12/19 01:30:38;;;;;;;21.25;13.63;;;;;3.90;99661.00;;;;5055723;28;20121;-63
2023/12/19 01:33:07;;;;;;;22.45;13.00;;;;;3.90;99664.00;;;;5055455;28;20045;-62
2023/12/19 01:35:33;;;;;;;18.42;12.10;;;;;3.90;99668.00;;;;5053623;28;20099;-64
2023/12/19 01:38:00;;;;;;;20.25;14.18;;;;;3.90;99662.00;;;;5055461;28;20500;-63
2023/12/19 01:40:28;;;;;;;20.30;12.80;;;;;3.80;99678.00;;;;5055457;28;20051;-63
2023/12/19 01:42:55;;;;;;;18.35;12.18;;;;;3.70;99699.00;;;;5055313;28;20466;-64
2023/12/19 01:45:22;;;;;;;20.75;12.88;;;;;3.70;99710.00;;;;5054740;28;20468;-64
2023/12/19 01:47:49;;;;;;;19.33;12.95;;;;;3.60;99707.00;;;;5054259;28;20521;-64
2023/12/19 01:50:16;;;;;;;20.95;13.05;;;;;3.60;99718.00;;;;5055411;28;20044;-62
2023/12/19 01:52:46;;;;;;;21.33;13.35;;;;;3.50;99699.00;;;;5055145;28;20041;-63
2023/12/19 01:55:14;;;;;;;20.52;12.88;;;;;3.40;99693.00;;;;5054343;28;20047;-63
2023/12/19 01:57:42;;;;;;;23.67;13.65;;;;;3.40;99687.00;;;;5055257;28;20106;-64
2023/12/19 02:00:12;;;;;;;21.83;12.95;;;;;3.40;99679.00;;;;5055403;28;20393;-64
2023/12/19 02:02:40;;;;;;;22.40;13.60;;;;;3.40;99667.00;;;;5055070;28;20383;-63
2023/12/19 02:05:07;;;;;;;19.17;12.82;;;;;3.50;99655.00;;;;5054472;28;20037;-63
2023/12/19 02:07:34;;;;;;;20.60;12.32;;;;;3.60;99653.00;;;;5055048;28;20041;-62
2023/12/19 02:10:01;;;;;;;21.58;13.10;;;;;3.50;99654.00;;;;5054838;28;20045;-63
2023/12/19 02:12:28;;;;;;;21.60;12.93;;;;;3.50;99659.00;;;;5055000;28;20045;-63
2023/12/19 02:14:54;;;;;;;20.85;13.10;;;;;3.50;99652.00;;;;5054089;28;20044;-62
2023/12/19 02:17:21;;;;;;;22.35;13.68;;;;;3.50;99652.00;;;;5054619;28;20044;-62
2023/12/19 02:19:48;;;;;;;26.00;13.98;;;;;3.50;99663.00;;;;5054438;28;20083;-62
2023/12/19 02:22:15;;;;;;;24.80;14.25;;;;;3.40;99668.00;;;;5054523;28;20119;-62
2023/12/19 02:24:42;;;;;;;22.70;13.40;;;;;3.40;99665.00;;;;5053895;28;20119;-63
2023/12/19 02:27:11;;;;;;;20.70;13.10;;;;;3.50;99669.00;;;;5054672;28;20041;-63
2023/12/19 02:29:38;;;;;;;25.83;15.23;;;;;3.40;99671.00;;;;5054509;28;20399;-63
2023/12/19 02:32:05;;;;;;;22.08;14.23;;;;;3.40;99658.00;;;;5054429;28;20045;-61
2023/12/19 02:34:32;;;;;;;24.40;14.15;;;;;3.50;99653.00;;;;5053752;28;20041;-61
2023/12/19 02:36:58;;;;;;;22.48;13.85;;;;;3.50;99657.00;;;;5053116;28;20045;-63
2023/12/19 02:39:25;;;;;;;22.42;14.18;;;;;3.60;99647.00;;;;5054269;28;20051;-62
2023/12/19 02:41:52;;;;;;;23.45;13.77;;;;;3.60;99646.00;;;;5053440;28;20407;-63
2023/12/19 02:44:18;;;;;;;23.80;14.25;;;;;3.50;99656.00;;;;5053709;28;20049;-63
2023/12/19 02:46:45;;;;;;;21.25;13.65;;;;;3.60;99657.00;;;;5054096;28;20051;-63
2023/12/19 02:49:11;;;;;;;25.23;14.27;;;;;3.70;99669.00;;;;5054289;28;20079;-63
2023/12/19 02:51:38;;;;;;;25.13;14.50;;;;;3.70;99676.00;;;;5054225;28;20045;-63
2023/12/19 02:54:05;;;;;;;21.30;13.25;;;;;3.60;99674.00;;;;5053669;28;20041;-63
2023/12/19 02:56:34;;;;;;;22.85;13.68;;;;;3.40;99648.00;;;;5054021;28;20045;-63
2023/12/19 02:59:01;;;;;;;20.13;12.32;;;;;3.30;99640.00;;;;5053965;28;20132;-62
2023/12/19 03:01:28;;;;;;;19.40;11.95;;;;;3.30;99640.00;;;;5053971;28;20120;-63
2023/12/19 03:03:55;;;;;;;23.63;13.38;;;;;3.30;99640.00;;;;5052001;28;20127;-62
2023/12/19 03:06:21;;;;;;;22.50;13.10;;;;;3.30;99630.00;;;;5053633;28;20107;-62
2023/12/19 03:08:48;;;;;;;20.65;11.80;;;;;3.40;99607.00;;;;5053881;28;20049;-63
2023/12/19 03:11:15;;;;;;;20.77;11.85;;;;;3.40;99601.00;;;;5053940;28;20040;-63
2023/12/19 03:13:42;;;;;;;22.35;12.73;;;;;3.30;99608.00;;;;5053125;28;20051;-63
2023/12/19 03:16:08;;;;;;;20.33;12.77;;;;;3.30;99615.00;;;;5053425;28;20064;-63
2023/12/19 03:18:35;;;;;;;20.30;12.23;;;;;3.20;99604.00;;;;5053499;28;20107;-63
2023/12/19 03:21:01;;;;;;;19.88;12.45;;;;;3.10;99599.00;;;;5053361;28;20048;-63
2023/12/19 03:23:28;;;;;;;19.60;12.38;;;;;3.20;99589.00;;;;5052908;28;20116;-61
2023/12/19 03:25:55;;;;;;;18.17;11.63;;;;;3.20;99604.00;;;;5053350;28;20036;-63
2023/12/19 03:28:21;;;;;;;17.98;11.85;;;;;3.10;99591.00;;;;5053327;28;20041;-65
2023/12/19 03:30:50;;;;;;;21.73;12.45;;;;;3.00;99597.00;;;;5052994;28;20072;-63
2023/12/19 03:33:17;;;;;;;20.20;12.65;;;;;3.00;99600.00;;;;5053133;28;20048;-63
2023/12/19 03:35:43;;;;;;;19.55;11.90;;;;;2.90;99600.00;;;;5052545;28;20041;-63
2023/12/19 03:38:11;;;;;;;17.83;11.68;;;;;2.90;99605.00;;;;5053187;28;20079;-63
2023/12/19 03:40:37;;;;;;;20.17;12.02;;;;;2.90;99603.00;;;;5053478;28;20041;-62
2023/12/19 03:43:04;;;;;;;18.60;12.20;;;;;2.90;99595.00;;;;5052982;28;20110;-63
2023/12/19 03:45:30;;;;;;;19.90;11.35;;;;;2.90;99594.00;;;;5051995;28;20047;-63
2023/12/19 03:47:57;;;;;;;17.98;10.88;;;;;2.90;99584.00;;;;5053305;28;20406;-62
2023/12/19 03:50:24;;;;;;;18.95;11.45;;;;;2.80;99597.00;;;;5053466;28;20045;-62
2023/12/19 03:52:50;;;;;;;18.88;11.70;;;;;2.80;99604.00;;;;5053238;28;20049;-63
2023/12/19 03:55:17;;;;;;;18.40;11.45;;;;;2.80;99602.00;;;;5052176;28;20060;-61
2023/12/19 03:57:44;;;;;;;18.13;11.40;;;;;2.80;99604.00;;;;5052645;28;20095;-63
2023/12/19 04:00:11;;;;;;;18.95;11.55;;;;;2.80;99591.00;;;;5052836;28;20137;-63
2023/12/19 04:02:38;;;;;;;23.60;12.70;;;;;2.90;99588.00;;;;5052612;28;20044;-63
2023/12/19 04:05:05;;;;;;;19.77;12.05;;;;;2.80;99579.00;;;;5052010;28;20049;-63
2023/12/19 04:07:32;;;;;;;20.15;12.05;;;;;2.80;99574.00;;;;5051432;28;20041;-63
2023/12/19 04:09:59;;;;;;;20.77;12.15;;;;;2.80;99571.00;;;;5052497;28;20099;-63
2023/12/19 04:12:25;;;;;;;19.67;11.82;;;;;2.80;99573.00;;;;5052516;28;20045;-62
2023/12/19 04:14:52;;;;;;;19.60;11.70;;;;;2.80;99566.00;;;;5051811;28;20098;-63
2023/12/19 04:17:19;;;;;;;20.50;12.27;;;;;2.90;99565.00;;;;5052370;28;20045;-63
2023/12/19 04:19:46;;;;;;;18.73;11.95;;;;;2.90;99555.00;;;;5053322;28;20040;-63
2023/12/19 04:22:13;;;;;;;21.92;12.93;;;;;3.00;99572.00;;;;5053067;28;20056;-63
2023/12/19 04:24:40;;;;;;;19.40;12.18;;;;;3.00;99577.00;;;;5051703;28;20041;-63
2023/12/19 04:27:06;;;;;;;19.75;11.38;;;;;3.00;99569.00;;;;5051080;28;20052;-63
2023/12/19 04:29:33;;;;;;;20.90;13.10;;;;;3.00;99584.00;;;;5052236;28;20041;-63
2023/12/19 04:31:59;;;;;;;16.98;10.80;;;;;3.00;99571.00;;;;5052161;28;20045;-63
2023/12/19 04:34:26;;;;;;;19.35;12.05;;;;;3.00;99574.00;;;;5051562;28;20052;-63
2023/12/19 04:36:53;;;;;;;18.63;11.02;;;;;2.90;99578.00;;;;5052281;28;20553;-63
2023/12/19 04:39:19;;;;;;;15.90;10.80;;;;;2.90;99574.00;;;;5052051;28;20041;-63
2023/12/19 04:41:46;;;;;;;19.20;11.77;;;;;2.80;99580.00;;;;5050059;28;20041;-63
2023/12/19 04:44:13;;;;;;;17.98;11.13;;;;;2.80;99572.00;;;;5050224;28;20423;-63
2023/12/19 04:46:42;;;;;;;18.38;11.20;;;;;2.80;99576.00;;;;5051877;28;20041;-63
2023/12/19 04:49:09;;;;;;;19.77;11.13;;;;;2.80;99562.00;;;;5051934;28;20045;-63
2023/12/19 04:51:35;;;;;;;16.08;10.10;;;;;2.80;99564.00;;;;5052199;28;20051;-63
2023/12/19 04:54:03;;;;;;;18.45;10.68;;;;;2.70;99563.00;;;;5051449;28;20045;-63
2023/12/19 04:56:30;;;;;;;18.90;10.85;;;;;2.70;99545.00;;;;5052034;28;20124;-63
2023/12/19 04:58:56;;;;;;;16.27;10.50;;;;;2.70;99545.00;;;;5051936;28;20048;-63
2023/12/19 05:01:23;;;;;;;15.15;10.05;;;;;2.70;99546.00;;;;5050658;28;20080;-63
2023/12/19 05:03:50;;;;;;;14.68;9.50;;;;;2.80;99540.00;;;;5049882;28;20053;-63
2023/12/19 05:06:17;;;;;;;16.73;10.45;;;;;2.70;99537.00;;;;5051799;28;20120;-63
2023/12/19 05:08:45;;;;;;;17.33;10.32;;;;;2.70;99539.00;;;;5051939;28;20464;-63
2023/12/19 05:11:12;;;;;;;16.85;10.70;;;;;2.70;99547.00;;;;5051710;28;20041;-63
2023/12/19 05:13:39;;;;;;;19.13;10.90;;;;;2.80;99553.00;;;;5051213;28;20052;-63
2023/12/19 05:16:11;;;;;;;16.45;10.25;;;;;2.80;99548.00;;;;5050229;28;20491;-63
2023/12/19 05:18:37;;;;;;;17.23;10.38;;;;;2.80;99553.00;;;;5051597;28;20401;-62
2023/12/19 05:21:04;;;;;;;18.45;10.70;;;;;2.80;99555.00;;;;5051689;28;20052;-63
2023/12/19 05:23:31;;;;;;;16.08;9.73;;;;;2.80;99544.00;;;;5051003;28;20037;-63
2023/12/19 05:25:57;;;;;;;18.50;11.38;;;;;2.80;99548.00;;;;5052725;28;20525;-62
2023/12/19 05:28:24;;;;;;;16.15;10.50;;;;;2.80;99551.00;;;;5060350;28;20068;-63
2023/12/19 05:30:51;;;;;;;16.25;10.10;;;;;2.70;99553.00;;;;5060568;28;20100;-63
2023/12/19 05:33:18;;;;;;;17.27;10.20;;;;;2.80;99561.00;;;;5058904;28;20064;-62
2023/12/19 05:35:44;;;;;;;15.18;10.00;;;;;2.80;99575.00;;;;5059331;28;20120;-63
2023/12/19 05:38:11;;;;;;;17.17;10.95;;;;;2.80;99587.00;;;;5058286;28;20133;-63
2023/12/19 05:40:42;;;;;;;16.23;10.18;;;;;2.70;99585.00;;;;5054653;28;20085;-63
2023/12/19 05:43:09;;;;;;;17.65;10.93;;;;;2.60;99580.00;;;;5062058;28;20069;-63
2023/12/19 05:45:35;;;;;;;17.20;10.50;;;;;2.60;99585.00;;;;5062409;28;20037;-60
2023/12/19 05:48:02;;;;;;;17.02;11.07;;;;;2.70;99588.00;;;;5060499;28;20099;-63
2023/12/19 05:50:29;;;;;;;18.23;11.10;;;;;2.90;99596.00;;;;5063649;28;20496;-63
2023/12/19 05:52:55;;;;;;;18.65;11.48;;;;;2.80;99613.00;;;;5061928;28;20063;-63
2023/12/19 05:55:22;;;;;;;18.98;10.88;;;;;2.70;99590.00;;;;5065251;28;20048;-63
2023/12/19 05:57:49;;;;;;;18.48;11.50;;;;;2.70;99588.00;;;;5055545;28;20506;-63
2023/12/19 06:00:17;;;;;;;22.50;11.40;;;;;2.70;99586.00;;;;5054957;28;20118;-63
2023/12/19 06:02:44;;;;;;;19.00;11.68;;;;;2.70;99583.00;;;;5053996;28;20037;-63
2023/12/19 06:05:11;;;;;;;15.10;9.95;;;;;2.70;99576.00;;;;5054367;28;20087;-63
2023/12/19 06:07:40;;;;;;;20.55;11.90;;;;;2.80;99574.00;;;;5054957;28;20091;-64
2023/12/19 06:10:12;;;;;;;20.13;11.77;;;;;2.80;99567.00;;;;5054795;28;20045;-63
2023/12/19 06:12:39;;;;;;;19.42;11.60;;;;;2.90;99573.00;;;;5053579;28;20098;-63
2023/12/19 06:15:12;;;;;;;16.55;10.32;;;;;2.90;99582.00;;;;5054028;28;20486;-63
2023/12/19 06:17:41;;;;;;;19.52;11.52;;;;;2.90;99582.00;;;;5054729;28;20041;-64
2023/12/19 06:20:12;;;;;;;15.65;10.63;;;;;3.00;99577.00;;;;5054805;28;20441;-63
2023/12/19 06:22:41;;;;;;;18.92;11.35;;;;;3.00;99563.00;;;;5054603;28;20613;-64
2023/12/19 06:25:08;;;;;;;22.02;12.32;;;;;3.10;99565.00;;;;5053888;28;20041;-64
2023/12/19 06:27:35;;;;;;;18.80;11.68;;;;;3.00;99549.00;;;;5053101;28;20041;-63
2023/12/19 06:30:03;;;;;;;20.10;12.02;;;;;2.90;99544.00;;;;5053147;28;20091;-64
2023/12/19 06:32:47;;;;;;;19.05;11.98;;;;;2.90;99545.00;;;;5054412;28;20052;-64
2023/12/19 06:35:14;;;;;;;19.05;11.88;;;;;3.00;99541.00;;;;5053661;28;20045;-63
2023/12/19 06:37:40;;;;;;;21.40;12.50;;;;;3.00;99546.00;;;;5054260;28;20120;-64
2023/12/19 06:40:07;;;;;;;18.90;11.75;;;;;2.90;99543.00;;;;5054292;28;20493;-64
2023/12/19 06:42:34;;;;;;;21.58;13.15;;;;;2.90;99544.00;;;;5054225;28;20127;-62
2023/12/19 06:45:01;;;;;;;18.92;12.27;;;;;2.90;99540.00;;;;5053987;28;20441;-63
2023/12/19 06:47:30;;;;;;;18.52;11.05;;;;;2.90;99549.00;;;;5054577;28;20075;-64
2023/12/19 06:49:57;;;;;;;19.77;12.00;;;;;3.00;99535.00;;;;5054213;28;20116;-64
2023/12/19 06:52:24;;;;;;;18.52;10.80;;;;;3.00;99540.00;;;;5052842;28;20413;-64
2023/12/19 06:54:50;;;;;;;23.73;13.40;;;;;3.00;99537.00;;;;5052130;28;20091;-63
2023/12/19 06:57:17;;;;;;;19.30;11.73;;;;;2.90;99543.00;;;;5053867;28;20048;-64
2023/12/19 06:59:43;;;;;;;19.95;11.50;;;;;2.90;99545.00;;;;5054058;28;20083;-64
2023/12/19 07:02:10;;;;;;;18.60;11.95;;;;;2.90;99543.00;;;;5054181;28;20061;-64
2023/12/19 07:04:36;;;;;;;17.92;11.48;;;;;2.90;99538.00;;;;5053165;28;20048;-64
2023/12/19 07:07:03;;;;;;;17.33;10.75;;;;;2.90;99536.00;;;;5053646;28;20043;-63
2023/12/19 07:09:30;;;;;;;19.23;11.20;;;;;2.90;99525.00;;;;5053654;28;20509;-64
2023/12/19 07:11:57;;;;;;;17.70;11.52;;;;;2.90;99519.00;;;;5053737;28;20467;-63
2023/12/19 07:14:24;;;;;;;19.75;12.57;;;;;2.90;99517.00;;;;5053029;28;20045;-63
2023/12/19 07:16:50;;;;;;;19.95;12.00;;;;;2.90;99503.00;;;;5053493;28;20102;-62
2023/12/19 07:19:17;;;;;;;19.52;11.40;;;;;2.80;99506.00;;;;5053429;28;20041;-64
2023/12/19 07:21:44;;;;;;;22.77;12.80;;;;;2.80;99486.00;;;;5053403;28;20057;-64
2023/12/19 07:24:11;;;;;;;21.02;11.52;;;;;2.80;99488.00;;;;5052855;28;20037;-64
2023/12/19 07:26:37;;;;;;;20.30;12.45;;;;;2.80;99489.00;;;;5053349;28;20037;-64
2023/12/19 07:29:08;;;;;;;22.20;12.43;;;;;2.80;99489.00;;;;5053362;28;20143;-64
2023/12/19 07:31:34;;;;;;;23.35;12.77;;;;;2.90;99493.00;;;;5053863;28;20079;-64
2023/12/19 07:34:06;;;;;;;20.23;12.40;;;;;2.90;99492.00;;;;5052774;28;20122;-62
2023/12/19 07:36:34;;;;;;;23.45;13.50;;;;;2.90;99492.00;;;;5051957;28;20125;-64
2023/12/19 07:39:01;;;;;;;20.98;12.48;;;;;2.90;99506.00;;;;5053058;28;20045;-64
2023/12/19 07:41:28;;;;;;;20.77;13.27;;;;;2.90;99490.00;;;;5052043;28;20140;-64
2023/12/19 07:43:54;;;;;;;22.35;13.20;;;;;2.90;99488.00;;;;5051351;28;20053;-64
2023/12/19 07:46:22;;;;;;;22.27;12.48;;;;;2.90;99493.00;;;;5053069;28;20045;-64
2023/12/19 07:48:49;;;;;;;22.60;12.23;;;;;2.90;99497.00;;;;5052863;28;20448;-64
2023/12/19 07:51:23;;;;;;;20.30;11.82;;;;;2.90;99494.00;;;;5053052;28;20049;-63
2023/12/19 07:53:51;;;;;;;21.42;12.68;;;;;2.90;99490.00;;;;5052362;28;20041;-64
2023/12/19 07:56:17;;;;;;;22.35;12.63;;;;;3.00;99497.00;;;;5052766;28;20056;-64
2023/12/19 07:58:44;;;;;;;20.90;13.15;;;;;3.00;99494.00;;;;5053208;28;20494;-63
2023/12/19 08:01:12;;;;;;;23.42;13.00;;;;;3.10;99493.00;;;;5052781;28;20045;-64
2023/12/19 08:03:41;;;;;;;19.63;12.45;;;;;3.10;99480.00;;;;5052120;28;20048;-64
2023/12/19 08:06:08;;;;;;;18.73;11.85;;;;;3.10;99470.00;;;;5052247;28;20033;-64
2023/12/19 08:08:35;;;;;;;18.15;11.48;;;;;3.10;99480.00;;;;5052578;28;20072;-64
2023/12/19 08:11:02;;;;;;;19.33;11.75;;;;;3.00;99490.00;;;;5052748;28;20049;-64
2023/12/19 08:13:28;;;;;;;18.42;11.35;;;;;3.10;99490.00;;;;5051778;28;20059;-63
2023/12/19 08:15:56;;;;;;;16.67;9.93;;;;;3.00;99478.00;;;;5052078;28;20076;-64
2023/12/19 08:18:22;;;;;;;17.50;10.45;;;;;3.00;99487.00;;;;5052395;28;20045;-62
2023/12/19 08:20:49;;;;;;;17.52;9.80;;;;;3.10;99484.00;;;;5052596;28;20448;-64
2023/12/19 08:23:16;;;;;;;15.88;9.75;;;;;3.10;99477.00;;;;5052385;28;20049;-64
2023/12/19 08:25:43;;;;;;;14.10;9.15;;;;;3.10;99487.00;;;;5051766;28;20086;-64
2023/12/19 08:28:10;;;;;;;17.95;9.25;;;;;3.10;99496.00;;;;5050931;28;20041;-64
2023/12/19 08:30:39;;;;;;;18.20;10.02;;;;;3.10;99500.00;;;;5052199;28;20072;-64
2023/12/19 08:33:06;;;;;;;15.73;9.55;;;;;3.10;99506.00;;;;5050920;28;20055;-64
2023/12/19 08:35:32;;;;;;;13.85;8.60;;;;;3.10;99507.00;;;;5051762;28;20087;-64
2023/12/19 08:38:00;;;;;;;15.10;9.23;;;;;3.20;99491.00;;;;5050718;28;20044;-64
2023/12/19 08:40:26;;;;;;;16.50;9.10;;;;;3.30;99487.00;;;;5052516;28;20049;-64
2023/12/19 08:42:53;;;;;;;13.95;8.75;;;;;3.30;99485.00;;;;5052000;28;20391;-63
2023/12/19 08:45:22;;;;;;;15.57;9.07;;;;;3.40;99470.00;;;;5051613;28;20041;-64
2023/12/19 08:47:50;;;;;;;21.35;12.05;;;;;3.40;99464.00;;;;5052023;28;20056;-63
2023/12/19 08:50:18;;;;;;;19.85;12.70;;;;;3.40;99460.00;;;;5052009;28;20104;-64
2023/12/19 08:52:45;;;;;;;22.98;15.15;;;;;3.40;99457.00;;;;5052176;28;20045;-64
2023/12/19 08:55:13;;;;;;;15.88;10.90;;;;;3.40;99458.00;;;;5051263;28;20044;-64
2023/12/19 08:57:44;;;;;;;13.13;8.60;;;;;3.40;99445.00;;;;5051599;28;20045;-64
2023/12/19 09:00:22;;;;;;;14.10;8.32;;;;;3.50;99446.00;;;;5051952;28;20071;-65
2023/12/19 09:02:49;;;;;;;17.52;8.50;;;;;3.50;99448.00;;;;5051939;28;20065;-64
2023/12/19 09:05:17;;;;;;;12.75;7.80;;;;;3.50;99448.00;;;;5051290;28;20484;-62
2023/12/19 09:07:48;;;;;;;13.05;8.45;;;;;3.50;99434.00;;;;5051840;28;20076;-64
2023/12/19 09:10:16;;;;;;;13.55;8.30;;;;;3.50;99444.00;;;;5050664;28;20081;-64
2023/12/19 09:12:43;;;;;;;13.80;7.95;;;;;3.50;99444.00;;;;5051896;28;20430;-64
2023/12/19 09:15:10;;;;;;;14.65;8.25;;;;;3.50;99437.00;;;;5051316;28;20051;-64
2023/12/19 09:17:37;;;;;;;13.25;8.18;;;;;3.50;99450.00;;;;5051717;28;20068;-64
2023/12/19 09:20:05;;;;;;;12.45;8.45;;;;;3.50;99455.00;;;;5033995;28;20045;-64
2023/12/19 09:22:32;;;;;;;16.13;9.05;;;;;3.50;99463.00;;;;5051718;28;20052;-64
2023/12/19 09:24:59;;;;;;;20.77;10.48;;;;;3.50;99459.00;;;;5049795;28;20061;-64
2023/12/19 09:27:26;;;;;;;17.00;10.15;;;;;3.60;99451.00;;;;5051564;28;20041;-64
2023/12/19 09:29:53;;;;;;;16.83;9.55;;;;;3.60;99470.00;;;;5055747;28;20076;-64
2023/12/19 09:32:19;;;;;;;16.27;9.50;;;;;3.70;99476.00;;;;5055727;28;20037;-64
2023/12/19 09:34:46;;;;;;;15.85;10.15;;;;;3.60;99473.00;;;;5053745;28;20045;-64
2023/12/19 09:37:13;;;;;;;15.85;9.00;;;;;3.70;99472.00;;;;5055470;28;20124;-64
2023/12/19 09:39:40;;;;;;;15.20;9.38;;;;;3.70;99468.00;;;;5055515;28;20041;-64
2023/12/19 09:42:07;;;;;;;15.15;9.23;;;;;3.80;99471.00;;;;5055816;28;20053;-64
2023/12/19 09:44:34;;;;;;;16.02;9.80;;;;;3.80;99468.00;;;;5054947;28;20125;-64
2023/12/19 09:47:02;;;;;;;14.65;9.45;;;;;3.80;99468.00;;;;5055301;28;20041;-64
2023/12/19 09:49:32;;;;;;;16.95;10.32;;;;;3.80;99463.00;;;;5055387;28;20041;-61
2023/12/19 09:51:59;;;;;;;14.98;9.68;;;;;3.80;99462.00;;;;5055992;28;20405;-60
2023/12/19 09:54:26;;;;;;;16.45;9.15;;;;;3.80;99459.00;;;;5054859;28;20079;-62
2023/12/19 09:56:54;;;;;;;18.15;10.00;;;;;3.80;99457.00;;;;5055263;28;20483;-61
2023/12/19 09:59:21;;;;;;;16.58;10.05;;;;;3.70;99457.00;;;;5055191;28;20448;-62
2023/12/19 10:01:48;;;;;;;15.75;9.82;;;;;3.70;99449.00;;;;5055090;28;20106;-62
2023/12/19 10:04:16;;;;;;;16.88;9.52;;;;;3.80;99437.00;;;;5054328;28;20044;-60
2023/12/19 10:06:54;;;;;;;17.90;10.25;;;;;3.90;99436.00;;;;5054940;28;20383;-60
2023/12/19 10:09:24;;;;;;;14.52;9.57;;;;;3.80;99442.00;;;;5054795;28;20048;-59
2023/12/19 10:12:11;;;;;;;15.10;9.77;;;;;3.90;99437.00;;;;5055588;28;20075;-59
2023/12/19 10:14:37;;;;;;;16.02;10.63;;;;;3.80;99418.00;;;;5054201;28;20128;-59
2023/12/19 10:17:05;;;;;;;15.25;8.98;;;;;3.80;99421.00;;;;5053573;28;20410;-61
2023/12/19 10:19:38;;;;;;;19.75;10.93;;;;;3.80;99408.00;;;;5053828;28;20040;-61
2023/12/19 10:22:09;;;;;;;18.73;9.90;;;;;3.90;99411.00;;;;5046125;28;20045;-61
2023/12/19 10:24:36;;;;;;;15.25;10.13;;;;;3.90;99401.00;;;;5034240;28;20091;-62
2023/12/19 10:27:05;;;;;;;17.80;10.27;;;;;3.80;99381.00;;;;5034567;28;20049;-60
2023/12/19 10:29:39;;;;;;;13.73;8.80;;;;;3.90;99377.00;;;;5034946;28;20049;-60
2023/12/19 10:32:16;;;;;;;16.05;10.48;;;;;3.90;99384.00;;;;5035416;28;20095;-61
2023/12/19 10:34:44;;;;;;;16.42;10.73;;;;;3.90;99387.00;;;;5034166;28;20045;-59
2023/12/19 10:37:17;;;;;;;15.07;9.77;;;;;3.90;99372.00;;;;5034479;28;20095;-60
2023/12/19 10:39:44;;;;;;;17.87;10.33;;;;;3.90;99371.00;;;;5033362;28;20049;-59
2023/12/19 10:42:11;;;;;;;15.23;10.25;;;;;4.00;99372.00;;;;5034984;28;20052;-60
2023/12/19 10:44:39;;;;;;;15.73;9.50;;;;;4.00;99356.00;;;;5033948;28;20534;-58
2023/12/19 10:47:12;;;;;;;14.70;9.02;;;;;4.00;99364.00;;;;5034490;28;20113;-60
2023/12/19 10:49:39;;;;;;;14.63;9.35;;;;;4.00;99352.00;;;;5033374;28;20080;-61
2023/12/19 10:52:09;;;;;;;15.13;9.35;;;;;3.90;99344.00;;;;5034285;28;20516;-61
2023/12/19 10:54:37;;;;;;;16.90;10.45;;;;;3.80;99332.00;;;;5033706;28;20506;-61
2023/12/19 10:57:16;;;;;;;16.65;10.38;;;;;3.90;99340.00;;;;5033925;28;20041;-61
2023/12/19 11:00:11;;;;;;;14.60;9.13;;;;;3.90;99330.00;;;;5034499;28;20046;-61
2023/12/19 11:02:46;;;;;;;13.93;9.07;;;;;3.80;99326.00;;;;5033998;28;20054;-61
2023/12/19 11:05:36;;;;;;;17.58;10.48;;;;;3.90;99325.00;;;;5033600;28;20559;-62
2023/12/19 11:08:06;;;;;;;15.00;9.50;;;;;4.10;99326.00;;;;5033937;28;20057;-61
2023/12/19 11:10:37;;;;;;;15.77;10.00;;;;;4.10;99316.00;;;;5033984;28;20048;-61
2023/12/19 11:13:04;;;;;;;15.77;9.63;;;;;4.10;99316.00;;;;5032544;28;20413;-61
2023/12/19 11:15:41;;;;;;;14.32;9.52;;;;;4.10;99310.00;;;;5033163;28;20482;-61
2023/12/19 11:18:18;;;;;;;14.02;9.43;;;;;4.20;99307.00;;;;5033551;28;20088;-62
2023/12/19 11:20:58;;;;;;;16.02;9.88;;;;;4.30;99314.00;;;;5032427;28;20048;-65
2023/12/19 11:23:44;;;;;;;13.18;9.00;;;;;4.30;99308.00;;;;5032880;28;20491;-63
2023/12/19 11:26:22;;;;;;;15.50;9.20;;;;;4.30;99284.00;;;;5033498;28;20050;-63
2023/12/19 11:28:49;;;;;;;13.30;8.88;;;;;4.30;99295.00;;;;5033446;28;20056;-63
2023/12/19 11:31:36;;;;;;;16.98;10.25;;;;;4.30;99283.00;;;;5033258;28;20069;-63
2023/12/19 11:34:23;;;;;;;15.90;9.80;;;;;4.30;99284.00;;;;5032796;28;20057;-63
2023/12/19 11:37:02;;;;;;;14.90;9.82;;;;;4.30;99281.00;;;;5033337;28;20418;-62
2023/12/19 11:39:31;;;;;;;21.20;13.07;;;;;4.30;99288.00;;;;5032217;28;20046;-63
2023/12/19 11:41:57;;;;;;;14.68;9.98;;;;;4.40;99288.00;;;;5033323;28;20081;-63
2023/12/19 11:44:37;;;;;;;14.32;9.88;;;;;4.50;99269.00;;;;5033299;28;20045;-64
2023/12/19 11:47:18;;;;;;;15.13;9.60;;;;;4.50;99264.00;;;;5032250;28;20087;-65
2023/12/19 11:49:45;;;;;;;14.40;9.35;;;;;4.60;99260.00;;;;5033082;28;20076;-64
2023/12/19 11:52:37;;;;;;;15.05;8.82;;;;;4.60;99257.00;;;;5032563;28;20083;-65
2023/12/19 11:55:05;;;;;;;13.95;9.18;;;;;4.50;99254.00;;;;5032446;28;20046;-64
2023/12/19 11:57:33;;;;;;;14.65;9.60;;;;;4.40;99253.00;;;;5032909;28;20052;-65
2023/12/19 12:00:01;;;;;;;14.52;9.27;;;;;4.40;99241.00;;;;5033168;28;20052;-64
2023/12/19 12:02:37;;;;;;;14.68;9.25;;;;;4.30;99240.00;;;;5032935;28;20046;-64
2023/12/19 12:05:06;;;;;;;13.05;8.68;;;;;4.30;99231.00;;;;5032152;28;20042;-64
2023/12/19 12:07:33;;;;;;;16.17;9.15;;;;;4.40;99234.00;;;;5032711;28;20080;-64
2023/12/19 12:10:06;;;;;;;13.68;8.23;;;;;4.40;99234.00;;;;5032827;28;20051;-65
2023/12/19 12:12:33;;;;;;;13.90;8.57;;;;;4.40;99214.00;;;;5031626;28;20143;-63
2023/12/19 12:15:18;;;;;;;14.25;8.20;;;;;4.50;99208.00;;;;5032332;28;20288;-65
2023/12/19 12:17:45;;;;;;;12.82;8.05;;;;;4.50;99200.00;;;;5032293;28;20120;-64